• Join FlightAware (Why Join?)
  • Login
  • US Flag 
05:30PM EDT


 

Airport Tracker/Info


-or-


 

Live Flight TrackerFlight Track Log ✈ XOJ549 ✈ 20-Oct-2013 ✈ KIND - KSJC

Flight Track Log - Related Links

Times and Time Zones

All times are in EDT time to prevent confusion due to time zone crossing. See the XOJ549 flight status page for this flight to view local times or setup timezone preferences in your user account.

Time Position Orientation Groundspeed Altitude Reporting Facility
EDT Latitude Longitude Course Direction KTS MPH feet Rate Location/Type
03:29PM 39.7167 -86.3167 218° Southwest 160 184 1,600  Level Indianapolis TRACON
03:30PM 39.6833 -86.3500 218° Southwest 203 234 4,300 3,840 Climbing Indianapolis TRACON
03:31PM 39.6722 -86.3950 252° West 206 237 7,100 3,960 Climbing Indianapolis Center
03:32PM 39.6536 -86.4842 255° West 239 275 10,900 3,720 Climbing Indianapolis Center
03:33PM 39.6489 -86.5897 267° West 285 328 14,800 3,480 Climbing Indianapolis Center
03:34PM 39.6467 -86.7097 269° West 318 366 18,100 3,060 Climbing Indianapolis Center
03:35PM 39.6433 -86.8614 268° West 345 397 21,200 2,760 Climbing Indianapolis Center
03:36PM 39.6411 -86.9922 269° West 360 414 23,900 2,400 Climbing Indianapolis Center
03:37PM 39.6383 -87.1242 268° West 365 420 26,200 1,980 Climbing Indianapolis Center
03:38PM 39.6333 -87.2603 267° West 375 432 28,100 1,740 Climbing Indianapolis Center
03:39PM 39.6308 -87.3989 269° West 384 442 29,800 1,380 Climbing Indianapolis Center
03:40PM 39.6261 -87.5714 268° West 398 458 31,000 720 Climbing Indianapolis Center
03:41PM 39.6231 -87.7200 269° West 411 473 31,400 840 Climbing Indianapolis Center
03:42PM 39.6186 -87.8669 268° West 410 472 32,800 1,680 Climbing Indianapolis Center
03:43PM 39.6150 -88.0128 268° West 408 470 34,900 1,980 Climbing Indianapolis Center
03:44PM 39.6108 -88.1506 268° West 392 451 36,900 1,680 Climbing Indianapolis Center
03:45PM 39.6178 -88.2867 274° West 383 441 38,400 1,380 Climbing Indianapolis Center
03:46PM 39.6239 -88.4464 273° West 373 429 39,800 1,080 Climbing Indianapolis Center
03:47PM 39.6306 -88.5792 274° West 372 428 40,700 720 Climbing Indianapolis Center
03:48PM 39.6336 -88.7150 272° West 376 433 41,400 720 Climbing Indianapolis Center
03:49PM 39.6394 -88.8475 273° West 373 429 42,300 720 Climbing Indianapolis Center
03:50PM 39.6447 -88.9814 273° West 373 429 43,000 300 Climbing Indianapolis Center
03:51PM 39.6483 -89.1431 272° West 374 430 43,000  Level Indianapolis Center
03:52PM 39.6544 -89.2842 273° West 387 445 43,000  Level Indianapolis Center
03:53PM 39.6583 -89.4253 272° West 392 451 43,000  Level Indianapolis Center
03:55PM 39.6636 -89.5825 273° West 396 456 43,000  Level Kansas City Center
03:56PM 39.6667 -89.7231 272° West 394 453 43,000  Level Kansas City Center
03:57PM 39.6708 -89.8650 272° West 395 455 43,000  Level Kansas City Center
03:58PM 39.6747 -90.0078 272° West 396 456 43,000  Level Kansas City Center
03:59PM 39.6792 -90.1778 272° West 396 456 43,000  Level Kansas City Center
04:00PM 39.6825 -90.3186 272° West 394 453 43,000  Level Kansas City Center
04:01PM 39.6858 -90.4617 272° West 397 457 43,000  Level Kansas City Center
04:02PM 39.6883 -90.6022 271° West 394 453 43,000  Level Kansas City Center
04:03PM 39.6919 -90.7433 272° West 394 453 43,000  Level Kansas City Center
04:04PM 39.6944 -90.9111 271° West 391 450 43,000  Level Kansas City Center
04:05PM 39.6967 -91.0500 271° West 388 447 43,000  Level Kansas City Center
04:06PM 39.6994 -91.1911 272° West 391 450 43,000  Level Kansas City Center
04:07PM 39.7008 -91.3308 271° West 397 457 43,000  Level Kansas City Center
04:08PM 39.7025 -91.4711 271° West 395 455 43,000  Level Kansas City Center
04:09PM 39.7042 -91.6431 271° West 397 457 43,000  Level Kansas City Center
04:10PM 39.7056 -91.7847 271° West 397 457 43,000  Level Kansas City Center
04:11PM 39.7072 -91.9253 271° West 393 452 43,000  Level Kansas City Center
04:12PM 39.7081 -92.0656 270° West 391 450 43,000  Level Kansas City Center
04:13PM 39.7094 -92.2075 271° West 393 452 43,000  Level Kansas City Center
04:14PM 39.7108 -92.3783 271° West 395 455 43,000  Level Kansas City Center
04:15PM 39.7117 -92.5219 270° West 397 457 43,000  Level Kansas City Center
04:16PM 39.7117 -92.6633 270° West 395 455 43,000  Level Kansas City Center
04:17PM 39.7119 -92.8067 270° West 397 457 43,000  Level Kansas City Center
04:18PM 39.7119 -92.9478 270° West 395 455 43,000  Level Kansas City Center
04:19PM 39.7114 -93.0872 270° West 389 448 43,000  Level Kansas City Center
04:20PM 39.7092 -93.2522 269° West 385 443 43,000  Level Kansas City Center
04:21PM 39.7094 -93.3939 270° West 392 451 43,000  Level Kansas City Center
04:23PM 39.7103 -93.5378 270° West 398 458 43,000  Level Kansas City Center
04:24PM 39.7100 -93.6753 270° West 388 447 43,000  Level Kansas City Center
04:25PM 39.7086 -93.8175 269° West 384 442 43,000  Level Kansas City Center
04:26PM 39.7078 -93.9744 270° West 388 447 43,000  Level Kansas City Center
04:27PM 39.7064 -94.1103 269° West 393 452 43,000  Level Kansas City Center
04:28PM 39.7056 -94.2669 270° West 390 449 43,000  Level Kansas City Center
04:29PM 39.7036 -94.4033 269° West 395 455 43,000  Level Kansas City Center
04:30PM 39.7019 -94.5625 269° West 396 456 43,000  Level Kansas City Center
04:31PM 39.7003 -94.7000 269° West 398 458 43,000  Level Kansas City Center
04:32PM 39.6986 -94.8592 269° West 396 456 43,000  Level Kansas City Center
04:33PM 39.6956 -94.9953 268° West 397 457 43,000  Level Kansas City Center
04:34PM 39.6942 -95.1536 269° West 396 456 43,000  Level Kansas City Center
04:35PM 39.6906 -95.2892 268° West 395 455 43,000  Level Kansas City Center
04:36PM 39.6875 -95.4478 269° West 395 455 43,000  Level Kansas City Center
04:37PM 39.6853 -95.5839 269° West 395 455 43,000  Level Kansas City Center
04:38PM 39.6811 -95.7450 268° West 397 457 43,000  Level Kansas City Center
04:39PM 39.6778 -95.8797 268° West 398 458 43,000  Level Kansas City Center
04:40PM 39.6742 -96.0389 268° West 397 457 43,000  Level Kansas City Center
04:41PM 39.6703 -96.1756 268° West 397 457 43,000  Level Kansas City Center
04:43PM 39.6617 -96.4728 268° West 399 459 43,000  Level Kansas City Center
04:44PM 39.6572 -96.6331 268° West 399 459 43,000  Level Kansas City Center
04:45PM 39.6531 -96.7703 268° West 398 458 43,000  Level Kansas City Center
04:46PM 39.6467 -96.9244 267° West 395 455 43,000  Level Kansas City Center
04:47PM 39.6422 -97.0678 268° West 397 457 43,000  Level Kansas City Center
04:48PM 39.6364 -97.2019 267° West 395 455 43,000  Level Kansas City Center
04:49PM 39.6286 -97.3450 266° West 396 456 43,000  Level Kansas City Center
04:50PM 39.6219 -97.5172 267° West 398 458 43,000  Level Kansas City Center
04:51PM 39.6158 -97.6614 267° West 399 459 43,000  Level Kansas City Center
04:53PM 39.6117 -97.8044 268° West 398 458 43,000  Level Kansas City Center
04:54PM 39.6078 -97.9542 268° West 404 465 43,000  Level Kansas City Center
04:55PM 39.6014 -98.0975 267° West 402 463 43,000  Level Kansas City Center
04:56PM 39.5947 -98.2403 267° West 399 459 43,000  Level Kansas City Center
04:57PM 39.5875 -98.3842 266° West 398 458 43,000  Level Kansas City Center
04:58PM 39.5814 -98.5319 267° West 405 466 43,000  Level Kansas City Center
04:59PM 39.5700 -98.7042 265° West 404 465 43,000  Level Kansas City Center
05:00PM 39.5642 -98.8514 267° West 407 468 43,000  Level Kansas City Center
05:01PM 39.5569 -99.0258 267° West 408 470 43,000  Level Denver Center
05:02PM 39.5489 -99.1742 266° West 411 473 43,000  Level Denver Center
05:03PM 39.5411 -99.3222 266° West 412 474 43,000  Level Denver Center
05:04PM 39.5325 -99.4703 266° West 412 474 43,000  Level Denver Center
05:05PM 39.5250 -99.6189 266° West 413 475 43,000  Level Denver Center
05:06PM 39.5161 -99.7675 266° West 414 476 43,000  Level Denver Center
05:07PM 39.5056 -99.9469 266° West 415 478 43,000  Level Denver Center
05:08PM 39.4969 -100.0878 266° West 416 479 43,000  Level Denver Center
05:09PM 39.4858 -100.2542 265° West 416 479 43,000  Level Denver Center
05:10PM 39.4767 -100.3964 265° West 414 476 43,000  Level Denver Center
05:11PM 39.4678 -100.5381 265° West 413 475 43,000  Level Denver Center
05:12PM 39.4567 -100.7078 265° West 421 484 43,000  Level Denver Center
05:13PM 39.4472 -100.8519 265° West 420 483 43,000  Level Denver Center
05:14PM 39.4361 -101.0208 265° West 420 483 43,000  Level Denver Center
05:15PM 39.4256 -101.1656 265° West 422 486 43,000  Level Denver Center
05:16PM 39.4158 -101.3328 266° West 419 482 43,000  Level Denver Center
05:17PM 39.4142 -101.4792 269° West 422 486 43,000  Level Denver Center
05:18PM 39.4117 -101.6461 269° West 418 481 43,000  Level Denver Center
05:20PM 39.4083 -101.7900 268° West 418 481 43,000  Level Denver Center
05:21PM 39.4056 -101.9578 269° West 417 480 43,000  Level Denver Center
05:22PM 39.4014 -102.1042 268° West 422 486 43,000  Level Denver Center
05:23PM 39.3983 -102.2497 268° West 422 486 43,000  Level Denver Center
05:24PM 39.3958 -102.4178 269° West 422 486 43,000  Level Denver Center
05:25PM 39.3914 -102.5683 268° West 420 483 43,000  Level Denver Center
05:26PM 39.3872 -102.7206 268° West 425 489 43,000  Level Denver Center
05:27PM 39.3825 -102.8717 268° West 423 487 43,000  Level Denver Center
05:28PM 39.3775 -103.0531 268° West 422 486 43,000  Level Denver Center
05:29PM 39.3722 -103.2047 267° West 423 487 43,000  Level Denver Center
05:30PM 39.3686 -103.3572 268° West 425 489 43,000  Level Denver Center
05:31PM 39.3631 -103.5089 267° West 423 487 43,000  Level Denver Center
05:32PM 39.3581 -103.6611 268° West 423 487 43,000  Level Denver Center
05:33PM 39.3528 -103.8144 267° West 427 491 43,000  Level Denver Center
05:34PM 39.3464 -103.9975 267° West 426 490 43,000  Level Denver Center
05:35PM 39.3403 -104.1519 267° West 432 497 43,000  Level Denver Center
05:36PM 39.3347 -104.3067 267° West 431 496 43,000  Level Denver Center
05:37PM 39.3275 -104.4600 267° West 425 489 43,000  Level Denver Center
05:38PM 39.3211 -104.6164 267° West 432 497 43,000  Level Denver Center
05:39PM 39.3142 -104.7742 267° West 434 499 43,000  Level Denver Center
05:40PM 39.3078 -104.9308 267° West 434 499 43,000  Level Denver Center
05:41PM 39.2997 -105.0881 266° West 435 501 43,000  Level Denver Center
05:42PM 39.2911 -105.2758 267° West 437 503 43,000  Level Denver Center
05:43PM 39.2831 -105.4314 266° West 434 499 43,000  Level Denver Center
05:44PM 39.2769 -105.5867 267° West 433 498 43,000  Level Denver Center
05:45PM 39.2686 -105.7417 266° West 433 498 43,000  Level Denver Center
05:46PM 39.2600 -105.8986 266° West 438 504 43,000  Level Denver Center
05:47PM 39.2517 -106.0522 266° West 432 497 43,000  Level Denver Center
05:48PM 39.2428 -106.2244 266° West 416 479 43,000  Level Denver Center
05:50PM 39.2347 -106.3631 266° West 407 468 43,000  Level Denver Center
05:51PM 39.2244 -106.5292 265° West 414 476 43,000  Level Denver Center
05:52PM 39.2158 -106.6775 266° West 429 494 43,000  Level Denver Center
05:53PM 39.2056 -106.8561 266° West 443 510 43,000  Level Denver Center
05:54PM 39.1953 -107.0108 265° West 450 518 43,000  Level Denver Center
05:55PM 39.1836 -107.1875 265° West 446 513 43,000  Level Denver Center
05:56PM 39.1725 -107.3406 265° West 445 512 43,000  Level Denver Center
05:57PM 39.1597 -107.5175 265° West 444 511 43,000  Level Denver Center
05:58PM 39.1508 -107.6675 266° West 440 506 43,000  Level Denver Center
05:59PM 39.1381 -107.8436 265° West 440 506 43,000  Level Denver Center
06:00PM 39.1281 -107.9939 265° West 439 505 43,000  Level Denver Center
06:01PM 39.1172 -108.1436 265° West 438 504 43,000  Level Denver Center
06:02PM 39.1050 -108.3189 265° West 437 503 43,000  Level Denver Center
06:03PM 39.0903 -108.4722 263° West 445 512 43,000  Level Denver Center
06:04PM 39.0783 -108.6500 265° West 446 513 43,000  Level Denver Center
06:05PM 39.0664 -108.8028 264° West 446 513 43,000  Level Denver Center
06:06PM 39.0525 -108.9811 264° West 448 516 43,000  Level Denver Center
06:07PM 39.0403 -109.1350 264° West 449 517 43,000  Level Denver Center
06:08PM 39.0253 -109.3156 264° West 454 522 43,000  Level Denver Center
06:09PM 39.0117 -109.4717 264° West 457 526 43,000  Level Denver Center
06:10PM 38.9992 -109.6250 264° West 451 519 43,000  Level Denver Center
06:11PM 38.9847 -109.8064 264° West 456 525 43,000  Level Denver Center
06:12PM 38.9744 -109.9092 263° West 455 524 43,000  Level Salt Lake Center
06:13PM 38.9606 -110.0658 264° West 458 527 43,000  Level Salt Lake Center
06:14PM 38.9464 -110.2200 263° West 456 525 43,000  Level Salt Lake Center
06:15PM 38.9297 -110.4033 263° West 460 529 43,000  Level Salt Lake Center
06:16PM 38.9167 -110.5592 264° West 458 527 43,000  Level Salt Lake Center
06:17PM 38.8989 -110.7392 263° West 456 525 43,000  Level Salt Lake Center
06:18PM 38.8828 -110.8933 262° West 455 524 43,000  Level Salt Lake Center
06:19PM 38.8675 -111.0572 263° West 457 526 43,000  Level Salt Lake Center
06:20PM 38.8511 -111.2189 263° West 458 527 43,000  Level Salt Lake Center
06:21PM 38.8350 -111.3817 263° West 461 531 43,000  Level Salt Lake Center
06:22PM 38.8150 -111.5778 263° West 463 533 43,000  Level Salt Lake Center
06:23PM 38.7986 -111.7406 263° West 464 534 43,000  Level Salt Lake Center
06:24PM 38.7814 -111.9033 262° West 463 533 43,000  Level Salt Lake Center
06:25PM 38.7644 -112.0656 262° West 462 532 43,000  Level Salt Lake Center
06:26PM 38.7469 -112.2261 262° West 458 527 43,000  Level Salt Lake Center
06:27PM 38.7250 -112.4214 262° West 463 533 43,000  Level Salt Lake Center
06:28PM 38.7069 -112.5831 262° West 463 533 43,000  Level Salt Lake Center
06:29PM 38.6875 -112.7444 261° West 462 532 43,000  Level Salt Lake Center
06:30PM 38.6697 -112.9058 262° West 461 531 43,000  Level Salt Lake Center
06:31PM 38.6506 -113.0661 261° West 460 529 43,000  Level Salt Lake Center
06:32PM 38.6317 -113.2308 262° West 467 537 43,000  Level Salt Lake Center
06:34PM 38.6089 -113.4217 261° West 458 527 43,000  Level Salt Lake Center
06:35PM 38.5903 -113.5833 262° West 460 529 43,000  Level Salt Lake Center
06:36PM 38.5703 -113.7425 261° West 456 525 43,000  Level Salt Lake Center
06:37PM 38.5511 -113.9017 261° West 457 526 43,000  Level Salt Lake Center
06:38PM 38.5300 -114.0619 260° West 459 528 43,000  Level Salt Lake Center
06:39PM 38.5108 -114.2236 261° West 461 531 43,000  Level Salt Lake Center
06:40PM 38.4850 -114.4158 260° West 460 529 43,000  Level Salt Lake Center
06:41PM 38.4644 -114.5764 261° West 460 529 43,000  Level Salt Lake Center
06:42PM 38.4436 -114.7381 261° West 463 533 43,000  Level Salt Lake Center
06:43PM 38.4214 -114.8972 260° West 459 528 43,000  Level Salt Lake Center
06:44PM 38.3997 -115.0597 260° West 463 533 43,000  Level Salt Lake Center
06:45PM 38.3792 -115.2211 261° West 464 534 43,000  Level Salt Lake Center
06:46PM 38.3522 -115.4111 260° West 467 537 43,000  Level Salt Lake Center
06:47PM 38.3300 -115.5725 260° West 463 533 43,000  Level Salt Lake Center
06:48PM 38.3078 -115.7350 260° West 465 535 43,000  Level Salt Lake Center
06:49PM 38.2836 -115.8964 259° West 465 535 43,000  Level Salt Lake Center
06:50PM 38.2614 -116.0589 260° West 466 536 43,000  Level Salt Lake Center
06:51PM 38.2381 -116.2206 260° West 465 535 43,000  Level Salt Lake Center
06:52PM 38.2142 -116.3822 259° West 466 536 43,000  Level Salt Lake Center
06:53PM 38.1853 -116.5775 259° West 468 539 43,000  Level Salt Lake Center
06:54PM 38.1611 -116.7397 259° West 467 537 43,000  Level Salt Lake Center
06:55PM 38.1369 -116.9019 259° West 468 539 43,000  Level Salt Lake Center
06:56PM 38.1175 -117.0306 259° West 463 533 43,000  Level Oakland Center
06:57PM 38.0911 -117.1969 259° West 471 542 43,000  Level Oakland Center
06:58PM 38.0686 -117.3411 259° West 481 554 43,000  Level Oakland Center
06:59PM 38.0392 -117.5353 259° West 467 537 43,000  Level Oakland Center
07:00PM 38.0139 -117.6978 259° West 468 539 43,000  Level Oakland Center
07:01PM 37.9569 -117.8447 244° Southwest 474 545 43,000  Level Oakland Center
07:02PM 37.8794 -117.9750 233° Southwest 463 533 43,000 -360 Level Oakland Center
07:03PM 37.8003 -118.1061 233° Southwest 467 537 42,300 -1,080 Descending Oakland Center
07:04PM 37.7208 -118.2375 233° Southwest 469 540 40,900 -1,440 Descending Oakland Center
07:05PM 37.6411 -118.3689 233° Southwest 471 542 39,400 -1,500 Descending Oakland Center
07:06PM 37.5628 -118.4986 233° Southwest 467 537 37,900 -1,620 Descending Oakland Center
07:07PM 37.4686 -118.6528 232° Southwest 464 534 36,100 -1,620 Descending Oakland Center
07:08PM 37.3967 -118.7900 237° Southwest 467 537 34,600 -1,500 Descending Oakland Center
07:09PM 37.3731 -118.9506 260° West 476 548 33,100 -1,500 Descending Oakland Center
07:10PM 37.3572 -119.1097 263° West 466 536 31,600 -1,500 Descending Oakland Center
07:11PM 37.3403 -119.2667 262° West 457 526 30,100 -1,500 Descending Oakland Center
07:12PM 37.3239 -119.4233 263° West 454 522 28,600 -1,500 Descending Oakland Center
07:13PM 37.3083 -119.5833 263° West 463 533 27,100 -2,100 Descending Oakland Center
07:14PM 37.2886 -119.7706 263° West 454 522 24,300 -2,280 Descending Oakland Center
07:15PM 37.2719 -119.9133 262° West 442 509 22,500 -1,800 Descending Oakland Center
07:16PM 37.2564 -120.0614 263° West 431 496 20,700 -1,800 Descending Oakland Center
07:17PM 37.2408 -120.2086 262° West 427 491 18,900 -1,740 Descending Oakland Center
07:18PM 37.2225 -120.3544 261° West 424 488 17,200 -1,920 Descending Oakland Center
07:19PM 37.2000 -120.4500 254° West 432 497 15,900 -1,860 Descending Northern Cal TRACON
07:20PM 37.1833 -120.5833 261° West 420 483 14,300 -1,680 Descending Northern Cal TRACON
07:21PM 37.1500 -120.7167 253° West 395 455 12,600 -1,500 Descending Northern Cal TRACON
07:22PM 37.1333 -120.8333 260° West 373 429 11,300 -1,200 Descending Northern Cal TRACON
07:23PM 37.1228 -120.9097 260° West 367 422 10,800 -840 Descending Oakland Center
07:24PM 37.1086 -121.0325 262° West 360 414 10,000 -420 Descending Oakland Center
07:25PM 37.0950 -121.1550 262° West 357 411 10,000  Level Oakland Center
07:26PM 37.0803 -121.2700 261° West 358 412 10,000  Level Oakland Center
07:27PM 37.0636 -121.4167 262° West 358 412 10,000 -600 Level Oakland Center
07:28PM 37.0503 -121.5169 261° West 308 354 8,800 -1,380 Descending Oakland Center
07:29PM 37.0864 -121.5869 303° West 284 327 7,200 -1,140 Descending Oakland Center
07:30PM 37.1317 -121.6614 307° West 269 310 6,500 -840 Descending Oakland Center
07:31PM 37.1811 -121.7372 309° West 256 295 5,600 -960 Descending Oakland Center
07:32PM 37.2217 -121.7808 319° Northwest 217 250 4,600 -1,260 Descending Oakland Center
07:33PM 37.2558 -121.8164 320° Northwest 182 209 3,100 -1,320 Descending Oakland Center
07:34PM 37.2842 -121.8475 319° Northwest 156 180 2,000 -1,020 Descending Oakland Center
07:35PM 37.3161 -121.8817 320° Northwest 136 157 1,100 -840 Descending Oakland Center
07:36PM 37.3417 -121.9078 321° Northwest 126 145 400 -720 Descending Oakland Center
07:38PM 37.3500 -121.9167 North  Level FlightAware Approximate
07:45PM 37.3627 -121.9291 North  Level Estimated